METAR Data
IDs: Format: Raw Decoded Include TAF

Data at: 1446 UTC 21 Apr 2021

METAR for:KDVN (Davenport Muni, IA, US)
Text:KDVN 211352Z AUTO 33008KT 10SM CLR 04/M05 A3018 RMK AO2 SLP223 T00391050
Temperature: 3.9°C ( 39°F)
Dewpoint: -5.0°C ( 23°F) [RH = 52%]
Pressure (altimeter):30.18 inches Hg (1022.1 mb) [Sea level pressure: 1022.3 mb]
Winds:from the NNW (330 degrees) at 9 MPH (8 knots; 4.1 m/s)
Visibility:10 or more sm (16+ km)
Ceiling:at least 12,000 feet AGL
Clouds:sky clear below 12,000 feet AGL
QC Flag:automated observation with no human augmentation